SAS744 EKCH-EYVI
Flight info
| Callsign | SAS744 |
|---|---|
| Flight time | 1h 18m |
| Altitude | 33000 |
| Route | SIMEG L987 ETRUS DCT TESPO DCT VEDEN DCT VAGVO DCT NEDAM DCT OTNAV |
| Aircraft | CRJ9/M-SDFGIRWY/S |
Departure
| Time | 2026-05-09 06:06 |
|---|---|
| Airport | Copenhagen Kastrup Airport (EKCH) |
Arrival
| Time | 2026-05-09 07:25 |
|---|---|
| Airport | Vilnius International Airport (EYVI) |
| Time | Latitude | Longitude | Altitude | Speed | Heading |
|---|---|---|---|---|---|
| 2026-05-09 05:28 | 55.62515 | 12.65571 | 22 ft | 0 kts | 24° |
| 2026-05-09 05:52 | 55.62514 | 12.65570 | 22 ft | 2 kts | 24° |
| 2026-05-09 05:52 | 55.62496 | 12.65556 | 23 ft | 3 kts | 24° |
| 2026-05-09 05:52 | 55.62477 | 12.65541 | 22 ft | 3 kts | 23° |
| 2026-05-09 05:53 | 55.62461 | 12.65527 | 24 ft | 3 kts | 36° |
| 2026-05-09 05:53 | 55.62448 | 12.65502 | 22 ft | 3 kts | 63° |
| 2026-05-09 05:53 | 55.62443 | 12.65469 | 23 ft | 3 kts | 85° |
| 2026-05-09 05:53 | 55.62443 | 12.65446 | 22 ft | 1 kts | 89° |
| 2026-05-09 05:54 | 55.62443 | 12.65443 | 22 ft | 0 kts | 89° |
| 2026-05-09 05:55 | 55.62443 | 12.65446 | 22 ft | 1 kts | 89° |
| 2026-05-09 05:56 | 55.62443 | 12.65453 | 22 ft | 0 kts | 89° |
| 2026-05-09 05:56 | 55.62443 | 12.65459 | 22 ft | 1 kts | 89° |
| 2026-05-09 05:56 | 55.62443 | 12.65469 | 22 ft | 0 kts | 89° |
| 2026-05-09 05:57 | 55.62443 | 12.65472 | 22 ft | 0 kts | 89° |
| 2026-05-09 05:57 | 55.62443 | 12.65474 | 22 ft | 0 kts | 89° |
| 2026-05-09 05:57 | 55.62443 | 12.65509 | 24 ft | 5 kts | 89° |
| 2026-05-09 05:57 | 55.62444 | 12.65604 | 22 ft | 10 kts | 89° |
| 2026-05-09 05:58 | 55.62446 | 12.65725 | 22 ft | 10 kts | 89° |
| 2026-05-09 05:58 | 55.62447 | 12.65851 | 22 ft | 10 kts | 89° |
| 2026-05-09 05:58 | 55.62450 | 12.65980 | 23 ft | 11 kts | 76° |
| 2026-05-09 05:58 | 55.62496 | 12.66078 | 22 ft | 11 kts | 41° |
| 2026-05-09 05:59 | 55.62509 | 12.66186 | 24 ft | 9 kts | 125° |
| 2026-05-09 05:59 | 55.62455 | 12.66203 | 22 ft | 9 kts | 213° |
| 2026-05-09 05:59 | 55.62402 | 12.66127 | 22 ft | 11 kts | 220° |
| 2026-05-09 05:59 | 55.62340 | 12.66031 | 23 ft | 12 kts | 221° |
| 2026-05-09 06:00 | 55.62302 | 12.65900 | 22 ft | 12 kts | 268° |
| 2026-05-09 06:00 | 55.62300 | 12.65745 | 22 ft | 13 kts | 269° |
| 2026-05-09 06:00 | 55.62298 | 12.65584 | 23 ft | 13 kts | 269° |
| 2026-05-09 06:00 | 55.62296 | 12.65418 | 22 ft | 14 kts | 269° |
| 2026-05-09 06:01 | 55.62293 | 12.65258 | 22 ft | 12 kts | 260° |
| 2026-05-09 06:01 | 55.62238 | 12.65194 | 24 ft | 10 kts | 191° |
| 2026-05-09 06:01 | 55.62172 | 12.65136 | 22 ft | 11 kts | 213° |
| 2026-05-09 06:01 | 55.62101 | 12.65054 | 22 ft | 13 kts | 213° |
| 2026-05-09 06:02 | 55.62017 | 12.64956 | 22 ft | 16 kts | 213° |
| 2026-05-09 06:02 | 55.61917 | 12.64841 | 22 ft | 18 kts | 213° |
| 2026-05-09 06:02 | 55.61804 | 12.64711 | 23 ft | 20 kts | 213° |
| 2026-05-09 06:02 | 55.61678 | 12.64567 | 22 ft | 22 kts | 213° |
| 2026-05-09 06:03 | 55.61541 | 12.64409 | 23 ft | 24 kts | 213° |
| 2026-05-09 06:03 | 55.61393 | 12.64241 | 24 ft | 26 kts | 213° |
| 2026-05-09 06:03 | 55.61242 | 12.64066 | 22 ft | 26 kts | 213° |
| 2026-05-09 06:03 | 55.61092 | 12.63894 | 22 ft | 26 kts | 213° |
| 2026-05-09 06:04 | 55.60942 | 12.63722 | 22 ft | 25 kts | 213° |
| 2026-05-09 06:04 | 55.60794 | 12.63553 | 23 ft | 25 kts | 213° |
| 2026-05-09 06:04 | 55.60649 | 12.63379 | 23 ft | 25 kts | 219° |
| 2026-05-09 06:04 | 55.60548 | 12.63231 | 23 ft | 12 kts | 210° |
| 2026-05-09 06:05 | 55.60477 | 12.63253 | 22 ft | 11 kts | 133° |
| 2026-05-09 06:05 | 55.60425 | 12.63358 | 22 ft | 11 kts | 131° |
| 2026-05-09 06:05 | 55.60411 | 12.63454 | 24 ft | 8 kts | 48° |
| 2026-05-09 06:05 | 55.60467 | 12.63544 | 22 ft | 24 kts | 42° |
| 2026-05-09 06:06 | 55.60749 | 12.63997 | 24 ft | 85 kts | 43° |
| 2026-05-09 06:06 | 55.61331 | 12.64885 | 23 ft | 134 kts | 41° |
| 2026-05-09 06:06 | 55.62093 | 12.66068 | 235 ft | 153 kts | 41° |
| 2026-05-09 06:06 | 55.62913 | 12.67364 | 759 ft | 155 kts | 43° |
| 2026-05-09 06:07 | 55.63700 | 12.68615 | 1424 ft | 156 kts | 44° |
| 2026-05-09 06:07 | 55.64557 | 12.69939 | 1701 ft | 177 kts | 43° |
| 2026-05-09 06:07 | 55.65574 | 12.71497 | 1799 ft | 210 kts | 42° |
| 2026-05-09 06:07 | 55.66744 | 12.73244 | 2164 ft | 229 kts | 41° |
| 2026-05-09 06:08 | 55.68017 | 12.75110 | 2769 ft | 245 kts | 41° |
| 2026-05-09 06:08 | 55.69347 | 12.77058 | 3607 ft | 250 kts | 41° |
| 2026-05-09 06:08 | 55.70608 | 12.79210 | 4406 ft | 254 kts | 59° |
| 2026-05-09 06:08 | 55.71029 | 12.82177 | 5245 ft | 254 kts | 97° |
| 2026-05-09 06:09 | 55.70341 | 12.85019 | 6100 ft | 257 kts | 130° |
| 2026-05-09 06:09 | 55.69026 | 12.87223 | 6910 ft | 262 kts | 141° |
| 2026-05-09 06:09 | 55.67447 | 12.88917 | 7644 ft | 269 kts | 157° |
| 2026-05-09 06:09 | 55.65679 | 12.90048 | 8452 ft | 273 kts | 160° |
| 2026-05-09 06:10 | 55.63862 | 12.91123 | 9206 ft | 278 kts | 161° |
| 2026-05-09 06:10 | 55.62008 | 12.92059 | 9954 ft | 283 kts | 174° |
| 2026-05-09 06:10 | 55.60090 | 12.91420 | 10683 ft | 288 kts | 205° |
| 2026-05-09 06:10 | 55.58360 | 12.89563 | 11361 ft | 294 kts | 217° |
| 2026-05-09 06:11 | 55.56818 | 12.87188 | 12094 ft | 296 kts | 225° |
| 2026-05-09 06:11 | 55.55383 | 12.84528 | 12818 ft | 299 kts | 228° |
| 2026-05-09 06:11 | 55.53976 | 12.81784 | 13507 ft | 303 kts | 228° |
| 2026-05-09 06:11 | 55.52532 | 12.79033 | 14207 ft | 307 kts | 223° |
| 2026-05-09 06:12 | 55.50666 | 12.77201 | 14770 ft | 312 kts | 194° |
| 2026-05-09 06:12 | 55.48482 | 12.77103 | 15318 ft | 318 kts | 172° |
| 2026-05-09 06:12 | 55.46301 | 12.77786 | 16016 ft | 318 kts | 169° |
| 2026-05-09 06:12 | 55.44104 | 12.78538 | 16603 ft | 322 kts | 169° |
| 2026-05-09 06:13 | 55.41904 | 12.79242 | 17150 ft | 327 kts | 171° |
| 2026-05-09 06:13 | 55.39640 | 12.79843 | 17762 ft | 330 kts | 173° |
| 2026-05-09 06:13 | 55.37354 | 12.80336 | 18365 ft | 333 kts | 173° |
| 2026-05-09 06:13 | 55.35124 | 12.81480 | 18857 ft | 338 kts | 149° |
| 2026-05-09 06:14 | 55.33414 | 12.84257 | 19334 ft | 338 kts | 121° |
| 2026-05-09 06:14 | 55.32353 | 12.87935 | 19834 ft | 338 kts | 108° |
| 2026-05-09 06:14 | 55.31710 | 12.91900 | 20315 ft | 340 kts | 100° |
| 2026-05-09 06:14 | 55.31281 | 12.96009 | 20801 ft | 342 kts | 97° |
| 2026-05-09 06:15 | 55.30900 | 13.00132 | 21288 ft | 344 kts | 97° |
| 2026-05-09 06:15 | 55.30507 | 13.04245 | 21756 ft | 347 kts | 98° |
| 2026-05-09 06:15 | 55.30049 | 13.08411 | 22230 ft | 350 kts | 99° |
| 2026-05-09 06:15 | 55.29549 | 13.12616 | 22670 ft | 353 kts | 99° |
| 2026-05-09 06:16 | 55.29048 | 13.16837 | 23126 ft | 355 kts | 99° |
| 2026-05-09 06:16 | 55.28540 | 13.21101 | 23568 ft | 358 kts | 99° |
| 2026-05-09 06:16 | 55.28032 | 13.25376 | 23970 ft | 360 kts | 99° |
| 2026-05-09 06:16 | 55.27513 | 13.29699 | 24323 ft | 363 kts | 99° |
| 2026-05-09 06:17 | 55.26993 | 13.34044 | 24681 ft | 365 kts | 99° |
| 2026-05-09 06:17 | 55.26469 | 13.38410 | 25093 ft | 366 kts | 99° |
| 2026-05-09 06:17 | 55.25941 | 13.42788 | 25430 ft | 368 kts | 99° |
| 2026-05-09 06:17 | 55.25411 | 13.47186 | 25758 ft | 370 kts | 99° |
| 2026-05-09 06:18 | 55.25023 | 13.51642 | 26074 ft | 370 kts | 90° |
| 2026-05-09 06:18 | 55.24958 | 13.56078 | 26408 ft | 369 kts | 85° |
| 2026-05-09 06:18 | 55.25070 | 13.60582 | 26714 ft | 370 kts | 83° |
| 2026-05-09 06:18 | 55.25224 | 13.65099 | 27041 ft | 372 kts | 83° |
| 2026-05-09 06:19 | 55.25356 | 13.69634 | 27345 ft | 375 kts | 84° |
| 2026-05-09 06:19 | 55.25436 | 13.74210 | 27648 ft | 377 kts | 84° |
| 2026-05-09 06:19 | 55.25505 | 13.78822 | 27950 ft | 379 kts | 84° |
| 2026-05-09 06:19 | 55.25574 | 13.83438 | 28231 ft | 380 kts | 84° |
| 2026-05-09 06:20 | 55.25638 | 13.88080 | 28505 ft | 382 kts | 84° |
| 2026-05-09 06:20 | 55.25705 | 13.92756 | 28814 ft | 383 kts | 85° |
| 2026-05-09 06:20 | 55.25766 | 13.97430 | 29092 ft | 385 kts | 85° |
| 2026-05-09 06:20 | 55.25824 | 14.02126 | 29351 ft | 387 kts | 85° |
| 2026-05-09 06:21 | 55.25883 | 14.06789 | 29618 ft | 388 kts | 85° |
| 2026-05-09 06:21 | 55.25936 | 14.11523 | 29865 ft | 390 kts | 85° |
| 2026-05-09 06:21 | 55.25994 | 14.16291 | 30110 ft | 391 kts | 85° |
| 2026-05-09 06:21 | 55.26047 | 14.21065 | 30332 ft | 393 kts | 85° |
| 2026-05-09 06:22 | 55.26099 | 14.25856 | 30519 ft | 394 kts | 85° |
| 2026-05-09 06:22 | 55.26151 | 14.30676 | 30708 ft | 396 kts | 85° |
| 2026-05-09 06:22 | 55.26197 | 14.35516 | 30894 ft | 398 kts | 85° |
| 2026-05-09 06:22 | 55.26247 | 14.40364 | 31075 ft | 399 kts | 85° |
| 2026-05-09 06:23 | 55.26293 | 14.45243 | 31257 ft | 401 kts | 85° |
| 2026-05-09 06:23 | 55.26335 | 14.50140 | 31451 ft | 401 kts | 86° |
| 2026-05-09 06:23 | 55.26375 | 14.55043 | 31628 ft | 403 kts | 86° |
| 2026-05-09 06:23 | 55.26414 | 14.59958 | 31794 ft | 404 kts | 86° |
| 2026-05-09 06:24 | 55.26450 | 14.64888 | 31982 ft | 405 kts | 86° |
| 2026-05-09 06:24 | 55.26488 | 14.69758 | 32194 ft | 405 kts | 86° |
| 2026-05-09 06:24 | 55.26520 | 14.74689 | 32404 ft | 405 kts | 86° |
| 2026-05-09 06:24 | 55.26553 | 14.79624 | 32621 ft | 405 kts | 87° |
| 2026-05-09 06:25 | 55.26584 | 14.84568 | 32837 ft | 405 kts | 87° |
| 2026-05-09 06:25 | 55.26611 | 14.89501 | 33050 ft | 406 kts | 87° |
| 2026-05-09 06:25 | 55.26637 | 14.94458 | 33166 ft | 408 kts | 87° |
| 2026-05-09 06:25 | 55.26663 | 14.99460 | 33215 ft | 412 kts | 87° |
| 2026-05-09 06:26 | 55.26705 | 15.09628 | 33268 ft | 422 kts | 88° |
| 2026-05-09 06:26 | 55.26738 | 15.20037 | 33275 ft | 432 kts | 88° |
| 2026-05-09 06:27 | 55.26766 | 15.30685 | 33277 ft | 441 kts | 88° |
| 2026-05-09 06:27 | 55.26783 | 15.41483 | 33274 ft | 450 kts | 88° |
| 2026-05-09 06:28 | 55.26791 | 15.52558 | 33269 ft | 459 kts | 88° |
| 2026-05-09 06:28 | 55.26791 | 15.63830 | 33278 ft | 466 kts | 89° |
| 2026-05-09 06:29 | 55.26776 | 15.75232 | 33261 ft | 467 kts | 89° |
| 2026-05-09 06:29 | 55.26753 | 15.86610 | 33259 ft | 466 kts | 89° |
| 2026-05-09 06:30 | 55.26721 | 15.97944 | 33252 ft | 464 kts | 89° |
| 2026-05-09 06:30 | 55.26675 | 16.09187 | 33249 ft | 463 kts | 89° |
| 2026-05-09 06:31 | 55.26622 | 16.20460 | 33245 ft | 462 kts | 89° |
| 2026-05-09 06:31 | 55.26558 | 16.31689 | 33245 ft | 461 kts | 89° |
| 2026-05-09 06:32 | 55.26484 | 16.42912 | 33251 ft | 460 kts | 89° |
| 2026-05-09 06:33 | 55.26353 | 16.59794 | 33258 ft | 463 kts | 89° |
| 2026-05-09 06:33 | 55.26252 | 16.71102 | 33256 ft | 465 kts | 89° |
| 2026-05-09 06:34 | 55.26080 | 16.88091 | 33248 ft | 468 kts | 90° |
| 2026-05-09 06:34 | 55.25953 | 16.99491 | 33247 ft | 468 kts | 90° |
| 2026-05-09 06:35 | 55.25814 | 17.10904 | 33242 ft | 467 kts | 90° |
| 2026-05-09 06:35 | 55.25663 | 17.22285 | 33241 ft | 466 kts | 90° |
| 2026-05-09 06:36 | 55.25503 | 17.33646 | 33245 ft | 466 kts | 90° |
| 2026-05-09 06:36 | 55.25335 | 17.44932 | 33245 ft | 466 kts | 91° |
| 2026-05-09 06:37 | 55.25155 | 17.56272 | 33253 ft | 465 kts | 91° |
| 2026-05-09 06:37 | 55.24965 | 17.67623 | 33239 ft | 465 kts | 91° |
| 2026-05-09 06:38 | 55.24764 | 17.78957 | 33234 ft | 465 kts | 91° |
| 2026-05-09 06:38 | 55.24552 | 17.90280 | 33247 ft | 465 kts | 91° |
| 2026-05-09 06:39 | 55.24328 | 18.01605 | 33242 ft | 465 kts | 91° |
| 2026-05-09 06:39 | 55.24097 | 18.12864 | 33233 ft | 465 kts | 91° |
| 2026-05-09 06:40 | 55.23855 | 18.24178 | 33242 ft | 465 kts | 91° |
| 2026-05-09 06:40 | 55.23600 | 18.35491 | 33246 ft | 464 kts | 91° |
| 2026-05-09 06:41 | 55.23339 | 18.46788 | 33229 ft | 464 kts | 92° |
| 2026-05-09 06:41 | 55.23063 | 18.58066 | 33240 ft | 464 kts | 92° |
| 2026-05-09 06:42 | 55.22827 | 18.67452 | 33230 ft | 464 kts | 92° |
| 2026-05-09 06:42 | 55.22488 | 18.80564 | 33239 ft | 464 kts | 92° |
| 2026-05-09 06:43 | 55.22184 | 18.91852 | 33226 ft | 465 kts | 92° |
| 2026-05-09 06:43 | 55.21866 | 19.03153 | 33226 ft | 464 kts | 92° |
| 2026-05-09 06:44 | 55.21592 | 19.12522 | 33224 ft | 464 kts | 92° |
| 2026-05-09 06:44 | 55.21261 | 19.23817 | 33227 ft | 463 kts | 92° |
| 2026-05-09 06:45 | 55.20916 | 19.35082 | 33220 ft | 463 kts | 92° |
| 2026-05-09 06:45 | 55.20564 | 19.46332 | 33221 ft | 463 kts | 93° |
| 2026-05-09 06:46 | 55.20197 | 19.57614 | 33227 ft | 464 kts | 93° |
| 2026-05-09 06:46 | 55.19822 | 19.68878 | 33228 ft | 464 kts | 93° |
| 2026-05-09 06:47 | 55.19440 | 19.80083 | 33230 ft | 464 kts | 93° |
| 2026-05-09 06:47 | 55.19042 | 19.91330 | 33221 ft | 465 kts | 93° |
| 2026-05-09 06:48 | 55.18635 | 20.02631 | 33224 ft | 465 kts | 93° |
| 2026-05-09 06:48 | 55.18216 | 20.13894 | 33232 ft | 464 kts | 94° |
| 2026-05-09 06:49 | 55.17790 | 20.25097 | 33209 ft | 459 kts | 94° |
| 2026-05-09 06:49 | 55.17361 | 20.36116 | 33207 ft | 455 kts | 94° |
| 2026-05-09 06:50 | 55.16923 | 20.47144 | 33217 ft | 454 kts | 94° |
| 2026-05-09 06:50 | 55.16475 | 20.58149 | 33205 ft | 453 kts | 94° |
| 2026-05-09 06:51 | 55.16019 | 20.69137 | 33206 ft | 452 kts | 94° |
| 2026-05-09 06:51 | 55.15552 | 20.80079 | 33221 ft | 451 kts | 94° |
| 2026-05-09 06:52 | 55.15077 | 20.91027 | 33226 ft | 451 kts | 94° |
| 2026-05-09 06:52 | 55.14594 | 21.01963 | 33219 ft | 450 kts | 94° |
| 2026-05-09 06:53 | 55.14104 | 21.12793 | 33204 ft | 450 kts | 94° |
| 2026-05-09 06:53 | 55.13599 | 21.23761 | 33216 ft | 449 kts | 95° |
| 2026-05-09 06:54 | 55.13087 | 21.34557 | 33208 ft | 449 kts | 94° |
| 2026-05-09 06:54 | 55.12570 | 21.45408 | 33212 ft | 448 kts | 95° |
| 2026-05-09 06:55 | 55.12035 | 21.56257 | 33197 ft | 447 kts | 95° |
| 2026-05-09 06:55 | 55.11502 | 21.67067 | 33196 ft | 447 kts | 95° |
| 2026-05-09 06:56 | 55.10952 | 21.77887 | 33187 ft | 447 kts | 95° |
| 2026-05-09 06:56 | 55.10398 | 21.88625 | 33200 ft | 447 kts | 95° |
| 2026-05-09 06:57 | 55.09830 | 21.99428 | 33192 ft | 446 kts | 95° |
| 2026-05-09 06:57 | 55.09258 | 22.10211 | 33192 ft | 446 kts | 95° |
| 2026-05-09 06:58 | 55.08671 | 22.20973 | 33195 ft | 445 kts | 95° |
| 2026-05-09 06:58 | 55.08079 | 22.31720 | 33199 ft | 444 kts | 95° |
| 2026-05-09 06:59 | 55.07484 | 22.42364 | 33185 ft | 443 kts | 96° |
| 2026-05-09 06:59 | 55.06874 | 22.53067 | 33181 ft | 443 kts | 95° |
| 2026-05-09 07:00 | 55.06259 | 22.63743 | 33175 ft | 442 kts | 95° |
| 2026-05-09 07:00 | 55.05629 | 22.74410 | 33164 ft | 441 kts | 96° |
| 2026-05-09 07:01 | 55.04995 | 22.85052 | 33172 ft | 441 kts | 96° |
| 2026-05-09 07:01 | 55.04354 | 22.95675 | 32802 ft | 442 kts | 96° |
| 2026-05-09 07:02 | 55.04039 | 23.00882 | 32210 ft | 431 kts | 96° |
| 2026-05-09 07:02 | 55.03718 | 23.06017 | 31655 ft | 421 kts | 96° |
| 2026-05-09 07:02 | 55.03410 | 23.11036 | 31112 ft | 412 kts | 96° |
| 2026-05-09 07:02 | 55.03100 | 23.15951 | 30580 ft | 404 kts | 96° |
| 2026-05-09 07:03 | 55.02798 | 23.20769 | 30053 ft | 396 kts | 96° |
| 2026-05-09 07:03 | 55.02501 | 23.25490 | 29463 ft | 388 kts | 96° |
| 2026-05-09 07:03 | 55.02208 | 23.30114 | 28902 ft | 381 kts | 96° |
| 2026-05-09 07:03 | 55.01917 | 23.34662 | 28362 ft | 374 kts | 96° |
| 2026-05-09 07:04 | 55.01628 | 23.39130 | 27824 ft | 368 kts | 96° |
| 2026-05-09 07:04 | 55.01341 | 23.43523 | 27333 ft | 362 kts | 96° |
| 2026-05-09 07:04 | 55.01062 | 23.47858 | 26844 ft | 357 kts | 96° |
| 2026-05-09 07:04 | 55.00783 | 23.52080 | 26380 ft | 352 kts | 96° |
| 2026-05-09 07:05 | 55.00504 | 23.56284 | 25918 ft | 347 kts | 96° |
| 2026-05-09 07:05 | 55.00231 | 23.60430 | 25495 ft | 344 kts | 96° |
| 2026-05-09 07:05 | 54.99957 | 23.64545 | 25065 ft | 340 kts | 96° |
| 2026-05-09 07:05 | 54.99686 | 23.68605 | 24651 ft | 337 kts | 96° |
| 2026-05-09 07:06 | 54.99415 | 23.72634 | 24231 ft | 334 kts | 96° |
| 2026-05-09 07:06 | 54.99141 | 23.76635 | 23842 ft | 331 kts | 96° |
| 2026-05-09 07:06 | 54.98868 | 23.80617 | 23402 ft | 330 kts | 96° |
| 2026-05-09 07:06 | 54.98600 | 23.84586 | 22949 ft | 330 kts | 96° |
| 2026-05-09 07:07 | 54.98331 | 23.88541 | 22510 ft | 330 kts | 96° |
| 2026-05-09 07:07 | 54.98058 | 23.92509 | 22091 ft | 329 kts | 96° |
| 2026-05-09 07:07 | 54.97786 | 23.96456 | 21669 ft | 327 kts | 96° |
| 2026-05-09 07:07 | 54.97513 | 24.00321 | 21246 ft | 325 kts | 96° |
| 2026-05-09 07:08 | 54.97235 | 24.04198 | 20844 ft | 323 kts | 96° |
| 2026-05-09 07:08 | 54.96950 | 24.08071 | 20424 ft | 321 kts | 96° |
| 2026-05-09 07:08 | 54.96669 | 24.11902 | 20031 ft | 318 kts | 96° |
| 2026-05-09 07:08 | 54.96397 | 24.15709 | 19656 ft | 316 kts | 96° |
| 2026-05-09 07:09 | 54.96128 | 24.19466 | 19275 ft | 313 kts | 97° |
| 2026-05-09 07:09 | 54.95853 | 24.23227 | 18888 ft | 311 kts | 97° |
| 2026-05-09 07:09 | 54.95584 | 24.26949 | 18517 ft | 309 kts | 97° |
| 2026-05-09 07:09 | 54.95319 | 24.30637 | 18107 ft | 308 kts | 97° |
| 2026-05-09 07:10 | 54.95049 | 24.34324 | 17702 ft | 305 kts | 97° |
| 2026-05-09 07:10 | 54.94783 | 24.37983 | 17273 ft | 304 kts | 97° |
| 2026-05-09 07:10 | 54.94520 | 24.41624 | 16879 ft | 303 kts | 96° |
| 2026-05-09 07:10 | 54.94254 | 24.45253 | 16499 ft | 301 kts | 97° |
| 2026-05-09 07:11 | 54.93991 | 24.48808 | 16118 ft | 300 kts | 97° |
| 2026-05-09 07:11 | 54.93726 | 24.52387 | 15747 ft | 298 kts | 97° |
| 2026-05-09 07:11 | 54.93460 | 24.55967 | 15379 ft | 297 kts | 97° |
| 2026-05-09 07:11 | 54.93195 | 24.59509 | 15021 ft | 294 kts | 97° |
| 2026-05-09 07:12 | 54.92931 | 24.63031 | 14660 ft | 293 kts | 97° |
| 2026-05-09 07:12 | 54.92639 | 24.66536 | 14294 ft | 293 kts | 103° |
| 2026-05-09 07:12 | 54.91902 | 24.69818 | 13951 ft | 292 kts | 115° |
| 2026-05-09 07:12 | 54.90950 | 24.72922 | 13577 ft | 289 kts | 120° |
| 2026-05-09 07:13 | 54.89911 | 24.75895 | 13188 ft | 287 kts | 121° |
| 2026-05-09 07:13 | 54.88869 | 24.78842 | 12820 ft | 285 kts | 121° |
| 2026-05-09 07:13 | 54.87837 | 24.81772 | 12461 ft | 284 kts | 121° |
| 2026-05-09 07:13 | 54.86803 | 24.84677 | 12110 ft | 282 kts | 121° |
| 2026-05-09 07:14 | 54.85793 | 24.87571 | 11765 ft | 279 kts | 120° |
| 2026-05-09 07:14 | 54.84813 | 24.90412 | 11468 ft | 270 kts | 121° |
| 2026-05-09 07:14 | 54.83522 | 24.92721 | 11153 ft | 271 kts | 150° |
| 2026-05-09 07:14 | 54.81761 | 24.93730 | 10915 ft | 272 kts | 166° |
| 2026-05-09 07:15 | 54.79869 | 24.94074 | 10636 ft | 273 kts | 175° |
| 2026-05-09 07:15 | 54.77979 | 24.94090 | 10370 ft | 271 kts | 178° |
| 2026-05-09 07:15 | 54.76087 | 24.94035 | 10077 ft | 272 kts | 179° |
| 2026-05-09 07:15 | 54.74190 | 24.93976 | 9767 ft | 272 kts | 178° |
| 2026-05-09 07:16 | 54.72304 | 24.94006 | 9421 ft | 271 kts | 177° |
| 2026-05-09 07:16 | 54.70425 | 24.94076 | 9091 ft | 269 kts | 176° |
| 2026-05-09 07:16 | 54.68553 | 24.94165 | 8747 ft | 268 kts | 177° |
| 2026-05-09 07:16 | 54.66689 | 24.94227 | 8418 ft | 268 kts | 177° |
| 2026-05-09 07:17 | 54.64836 | 24.94288 | 8089 ft | 266 kts | 177° |
| 2026-05-09 07:17 | 54.62990 | 24.94356 | 7768 ft | 265 kts | 177° |
| 2026-05-09 07:17 | 54.61180 | 24.94429 | 7477 ft | 263 kts | 177° |
| 2026-05-09 07:17 | 54.59373 | 24.94490 | 7300 ft | 256 kts | 176° |
| 2026-05-09 07:18 | 54.57669 | 24.95214 | 6992 ft | 252 kts | 149° |
| 2026-05-09 07:18 | 54.56237 | 24.96893 | 6706 ft | 246 kts | 142° |
| 2026-05-09 07:18 | 54.54864 | 24.98616 | 6433 ft | 243 kts | 143° |
| 2026-05-09 07:18 | 54.53474 | 25.00247 | 6130 ft | 238 kts | 145° |
| 2026-05-09 07:19 | 54.52068 | 25.01764 | 5834 ft | 238 kts | 148° |
| 2026-05-09 07:19 | 54.50654 | 25.03190 | 5529 ft | 235 kts | 149° |
| 2026-05-09 07:19 | 54.49268 | 25.04646 | 5258 ft | 233 kts | 146° |
| 2026-05-09 07:19 | 54.48072 | 25.06454 | 4947 ft | 228 kts | 120° |
| 2026-05-09 07:20 | 54.47429 | 25.08887 | 4714 ft | 222 kts | 110° |
| 2026-05-09 07:20 | 54.46902 | 25.11351 | 4433 ft | 218 kts | 108° |
| 2026-05-09 07:20 | 54.46807 | 25.13879 | 4076 ft | 219 kts | 71° |
| 2026-05-09 07:20 | 54.47638 | 25.16035 | 3836 ft | 218 kts | 50° |
| 2026-05-09 07:21 | 54.48691 | 25.17883 | 3596 ft | 213 kts | 45° |
| 2026-05-09 07:21 | 54.49851 | 25.19419 | 3316 ft | 211 kts | 31° |
| 2026-05-09 07:21 | 54.51189 | 25.20408 | 3024 ft | 208 kts | 24° |
| 2026-05-09 07:21 | 54.52548 | 25.21175 | 2748 ft | 203 kts | 22° |
| 2026-05-09 07:22 | 54.53842 | 25.21960 | 2516 ft | 191 kts | 24° |
| 2026-05-09 07:22 | 54.55041 | 25.22778 | 2262 ft | 178 kts | 25° |
| 2026-05-09 07:22 | 54.56130 | 25.23531 | 1990 ft | 161 kts | 24° |
| 2026-05-09 07:22 | 54.57064 | 25.24175 | 1809 ft | 126 kts | 24° |
| 2026-05-09 07:23 | 54.57841 | 25.24717 | 1574 ft | 124 kts | 23° |
| 2026-05-09 07:23 | 54.58654 | 25.25251 | 1499 ft | 130 kts | 22° |
| 2026-05-09 07:23 | 54.59484 | 25.25854 | 1362 ft | 124 kts | 23° |
| 2026-05-09 07:23 | 54.60287 | 25.26418 | 1130 ft | 123 kts | 21° |
| 2026-05-09 07:24 | 54.61093 | 25.26962 | 921 ft | 123 kts | 23° |
| 2026-05-09 07:24 | 54.61845 | 25.27483 | 731 ft | 117 kts | 23° |
| 2026-05-09 07:24 | 54.62610 | 25.28016 | 620 ft | 115 kts | 21° |
| 2026-05-09 07:24 | 54.63232 | 25.28449 | 605 ft | 73 kts | 21° |
| 2026-05-09 07:25 | 54.63587 | 25.28696 | 619 ft | 44 kts | 22° |
| 2026-05-09 07:25 | 54.63722 | 25.28762 | 635 ft | 15 kts | 356° |
| 2026-05-09 07:25 | 54.63818 | 25.28747 | 638 ft | 13 kts | 354° |
| 2026-05-09 07:25 | 54.63896 | 25.28734 | 638 ft | 11 kts | 354° |
| 2026-05-09 07:26 | 54.63965 | 25.28723 | 639 ft | 10 kts | 354° |
| 2026-05-09 07:26 | 54.64038 | 25.28710 | 641 ft | 11 kts | 354° |
| 2026-05-09 07:26 | 54.64137 | 25.28695 | 646 ft | 16 kts | 355° |
| 2026-05-09 07:26 | 54.64246 | 25.28677 | 648 ft | 15 kts | 354° |
| 2026-05-09 07:27 | 54.64344 | 25.28659 | 648 ft | 14 kts | 353° |
| 2026-05-09 07:27 | 54.64440 | 25.28633 | 649 ft | 13 kts | 351° |
| 2026-05-09 07:27 | 54.64460 | 25.28628 | 649 ft | 1 kts | 351° |
| 2026-05-09 07:27 | 54.64470 | 25.28625 | 649 ft | 2 kts | 351° |
| 2026-05-09 07:28 | 54.64484 | 25.28620 | 650 ft | 3 kts | 348° |
| 2026-05-09 07:28 | 54.64504 | 25.28595 | 650 ft | 4 kts | 295° |
| 2026-05-09 07:28 | 54.64500 | 25.28513 | 645 ft | 9 kts | 257° |
| 2026-05-09 07:28 | 54.64510 | 25.28447 | 643 ft | 6 kts | 336° |
| 2026-05-09 07:29 | 54.64528 | 25.28438 | 643 ft | 1 kts | 345° |
| 2026-05-09 07:29 | 54.64529 | 25.28438 | 643 ft | 0 kts | 345° |